createdAt,value
2018-04-02T00:00:25.361Z,99.90
2018-04-02T00:02:53.605Z,99.90
2018-04-02T00:05:21.861Z,99.90
2018-04-02T00:07:50.107Z,99.90
2018-04-02T00:10:18.358Z,99.90
2018-04-02T00:12:46.605Z,99.90
2018-04-02T00:15:14.880Z,99.90
2018-04-02T00:17:43.189Z,99.90
2018-04-02T00:20:11.449Z,99.90
2018-04-02T00:22:39.687Z,99.90
2018-04-02T00:25:07.958Z,99.90
2018-04-02T00:27:36.216Z,99.90
2018-04-02T00:30:05.225Z,99.90
2018-04-02T00:32:33.487Z,99.90
2018-04-02T00:35:01.732Z,99.90
2018-04-02T00:37:29.990Z,99.90
2018-04-02T00:39:58.242Z,99.90
2018-04-02T00:42:26.495Z,99.90
2018-04-02T00:44:55.515Z,99.90
2018-04-02T00:47:23.774Z,99.90
2018-04-02T00:49:52.017Z,99.90
2018-04-02T00:52:20.279Z,99.90
2018-04-02T00:54:48.522Z,99.90
2018-04-02T00:57:16.778Z,99.90
2018-04-02T00:59:45.024Z,99.90
2018-04-02T01:02:13.349Z,99.90
2018-04-02T01:04:41.596Z,99.90
2018-04-02T01:07:10.622Z,99.90
2018-04-02T01:09:38.875Z,99.90
2018-04-02T01:12:07.125Z,99.90
2018-04-02T01:14:36.145Z,99.90
2018-04-02T01:17:04.403Z,99.90
2018-04-02T01:19:33.414Z,99.90
2018-04-02T01:22:01.667Z,99.90
2018-04-02T01:24:30.683Z,99.90
2018-04-02T01:26:58.938Z,99.90
2018-04-02T01:29:27.951Z,99.90
2018-04-02T01:31:56.226Z,99.90
2018-04-02T01:34:24.485Z,99.90
2018-04-02T01:36:53.504Z,99.90
2018-04-02T01:39:21.761Z,99.90
2018-04-02T01:41:50.021Z,99.90
2018-04-02T01:44:19.042Z,99.90
2018-04-02T01:46:47.294Z,99.90
2018-04-02T01:49:16.322Z,99.90
2018-04-02T01:51:44.568Z,99.90
2018-04-02T01:54:13.589Z,99.90
2018-04-02T01:56:42.770Z,99.90
2018-04-02T01:59:11.026Z,99.90
2018-04-02T02:01:40.050Z,99.90
2018-04-02T02:04:08.323Z,99.90
2018-04-02T02:06:36.565Z,99.90
2018-04-02T02:09:06.508Z,99.90
2018-04-02T02:11:34.765Z,99.90
2018-04-02T02:14:03.799Z,99.90
2018-04-02T02:16:32.061Z,99.90
2018-04-02T02:19:00.325Z,99.90
2018-04-02T02:21:28.579Z,99.90
2018-04-02T02:23:57.608Z,99.90
2018-04-02T02:26:25.861Z,99.90
2018-04-02T02:28:54.886Z,99.90
2018-04-02T02:31:23.132Z,99.90
2018-04-02T02:33:51.390Z,99.90
2018-04-02T02:36:20.406Z,99.90
2018-04-02T02:38:48.659Z,99.90
2018-04-02T02:41:17.682Z,99.90
2018-04-02T02:43:45.938Z,99.90
2018-04-02T02:46:14.963Z,99.90
2018-04-02T02:48:43.210Z,99.90
2018-04-02T02:51:12.227Z,99.90
2018-04-02T02:53:40.477Z,99.90
2018-04-02T02:56:08.755Z,99.90
2018-04-02T02:58:37.008Z,99.90
2018-04-02T03:01:06.040Z,99.90
2018-04-02T03:03:34.298Z,99.90
2018-04-02T03:06:02.562Z,99.90
2018-04-02T03:08:30.817Z,99.90
2018-04-02T03:11:00.578Z,99.90
2018-04-02T03:13:28.834Z,99.90
2018-04-02T03:15:57.122Z,99.90
2018-04-02T03:18:25.376Z,99.90
2018-04-02T03:20:54.390Z,99.90
2018-04-02T03:23:22.650Z,99.90
2018-04-02T03:25:51.675Z,99.90
2018-04-02T03:28:19.938Z,99.90
2018-04-02T03:30:48.186Z,99.90
2018-04-02T03:33:17.201Z,99.90
2018-04-02T03:35:45.453Z,99.90
2018-04-02T03:38:14.481Z,99.90
2018-04-02T03:40:42.731Z,99.90
2018-04-02T03:43:11.756Z,99.90
2018-04-02T03:45:40.007Z,99.90
2018-04-02T03:48:08.264Z,99.90
2018-04-02T03:50:37.277Z,99.90
2018-04-02T03:53:05.541Z,99.90
2018-04-02T03:55:34.550Z,99.90
2018-04-02T03:58:02.813Z,99.90
2018-04-02T04:00:31.839Z,99.90
2018-04-02T04:03:00.101Z,99.90
2018-04-02T04:05:28.384Z,99.90
2018-04-02T04:07:56.646Z,99.90
2018-04-02T04:10:24.894Z,99.90
2018-04-02T04:12:53.914Z,99.90
2018-04-02T04:15:22.179Z,99.90
2018-04-02T04:17:51.199Z,99.90
2018-04-02T04:20:19.453Z,99.90
2018-04-02T04:22:47.711Z,99.90
2018-04-02T04:25:15.963Z,99.90
2018-04-02T04:27:44.213Z,99.90
2018-04-02T04:30:12.479Z,99.90
2018-04-02T04:32:40.729Z,99.90
2018-04-02T04:35:09.753Z,99.90
2018-04-02T04:37:38.005Z,99.90
2018-04-02T04:40:06.261Z,99.90
2018-04-02T04:42:35.287Z,99.90
2018-04-02T04:45:03.538Z,99.90
2018-04-02T04:47:31.782Z,99.90
2018-04-02T04:50:00.047Z,99.90
2018-04-02T04:52:28.294Z,99.90
2018-04-02T04:54:56.565Z,99.90
2018-04-02T04:57:24.822Z,99.90
2018-04-02T04:59:53.078Z,99.90
2018-04-02T05:02:22.103Z,99.90
2018-04-02T05:04:50.357Z,99.90
2018-04-02T05:07:19.385Z,99.90
2018-04-02T05:09:47.634Z,99.90
2018-04-02T05:12:15.894Z,99.90
2018-04-02T05:14:44.910Z,99.90
2018-04-02T05:17:13.173Z,99.90
2018-04-02T05:19:42.195Z,99.90
2018-04-02T05:22:10.462Z,99.90
2018-04-02T05:24:38.713Z,99.90
2018-04-02T05:27:07.733Z,99.90
2018-04-02T05:29:35.982Z,99.90
2018-04-02T05:32:05.009Z,99.90
2018-04-02T05:34:33.260Z,99.90
2018-04-02T05:37:01.529Z,99.90
2018-04-02T05:39:30.536Z,99.90
2018-04-02T05:41:58.802Z,99.90
2018-04-02T05:44:27.070Z,99.90
2018-04-02T05:46:55.322Z,99.90
2018-04-02T05:49:23.582Z,99.90
2018-04-02T05:51:51.835Z,99.90
2018-04-02T05:54:20.086Z,99.90
2018-04-02T05:56:48.345Z,99.90
2018-04-02T05:59:17.368Z,99.90
2018-04-02T06:01:45.621Z,99.90
2018-04-02T06:04:13.875Z,99.90
2018-04-02T06:06:42.127Z,99.90
2018-04-02T06:09:10.385Z,99.90
2018-04-02T06:11:38.638Z,99.90
2018-04-02T06:14:06.902Z,99.90
2018-04-02T06:16:35.171Z,99.90
2018-04-02T06:19:03.419Z,99.90
2018-04-02T06:21:31.671Z,99.90
2018-04-02T06:23:59.930Z,99.90
2018-04-02T06:26:28.182Z,99.90
2018-04-02T06:28:57.202Z,99.90
2018-04-02T06:31:25.461Z,99.90
2018-04-02T06:33:53.725Z,99.90
2018-04-02T06:36:21.981Z,99.90
2018-04-02T06:38:51.009Z,99.90
2018-04-02T06:41:19.263Z,99.90
2018-04-02T06:43:48.277Z,99.90
2018-04-02T06:46:16.519Z,99.90
2018-04-02T06:48:44.773Z,99.90
2018-04-02T06:51:13.023Z,99.90
2018-04-02T06:53:41.273Z,99.90
2018-04-02T06:56:09.863Z,99.90
2018-04-02T06:58:38.106Z,99.90
2018-04-02T07:01:06.361Z,99.90
2018-04-02T07:03:34.614Z,99.90
2018-04-02T07:06:02.865Z,99.90
2018-04-02T07:08:31.115Z,99.90
2018-04-02T07:11:00.298Z,99.90
2018-04-02T07:13:28.505Z,99.90
2018-04-02T07:15:56.759Z,99.90
2018-04-02T07:18:25.772Z,99.90
2018-04-02T07:20:54.024Z,99.90
2018-04-02T07:23:23.034Z,99.90
2018-04-02T07:25:52.057Z,99.90
2018-04-02T07:28:20.305Z,99.90
2018-04-02T07:30:48.561Z,99.90
2018-04-02T07:33:17.578Z,99.90
2018-04-02T07:35:45.833Z,99.90
2018-04-02T07:38:14.841Z,99.90
2018-04-02T07:40:43.869Z,99.90
2018-04-02T07:43:12.117Z,99.90
2018-04-02T07:45:40.372Z,99.90
2018-04-02T07:48:09.390Z,99.90
2018-04-02T07:50:37.660Z,99.90
2018-04-02T07:53:06.665Z,99.90
2018-04-02T07:55:34.914Z,99.90
2018-04-02T07:58:03.926Z,99.90
2018-04-02T08:00:32.171Z,99.90
2018-04-02T08:03:00.491Z,99.90
2018-04-02T08:05:28.672Z,99.90
2018-04-02T08:07:56.923Z,99.90
2018-04-02T08:10:25.209Z,99.90
2018-04-02T08:12:53.458Z,99.90
2018-04-02T08:15:22.479Z,99.90
2018-04-02T08:17:50.735Z,99.90
2018-04-02T08:20:19.740Z,99.90
2018-04-02T08:22:47.990Z,99.90
2018-04-02T08:25:17.054Z,99.90
2018-04-02T08:27:46.014Z,99.90
2018-04-02T08:30:14.270Z,99.90
2018-04-02T08:32:42.573Z,99.90
2018-04-02T08:35:10.765Z,99.90
2018-04-02T08:37:39.032Z,99.90
2018-04-02T08:40:07.278Z,99.90
2018-04-02T08:42:35.513Z,99.90
2018-04-02T08:45:03.766Z,99.90
2018-04-02T08:47:32.010Z,99.90
2018-04-02T08:50:00.273Z,99.90
2018-04-02T08:52:28.534Z,99.90
2018-04-02T08:54:57.569Z,99.90
2018-04-02T08:57:25.809Z,99.90
2018-04-02T08:59:54.833Z,99.90
2018-04-02T09:02:23.077Z,99.90
2018-04-02T09:04:52.099Z,99.90
2018-04-02T09:07:20.334Z,99.90
2018-04-02T09:09:49.361Z,99.90
2018-04-02T09:12:17.598Z,99.90
2018-04-02T09:14:45.850Z,99.90
2018-04-02T09:17:14.093Z,99.90
2018-04-02T09:19:42.341Z,99.90
2018-04-02T09:22:11.346Z,99.90
2018-04-02T09:24:39.594Z,99.90
2018-04-02T09:27:07.833Z,99.90
2018-04-02T09:29:36.086Z,99.90
2018-04-02T09:32:04.366Z,99.90
2018-04-02T09:34:33.346Z,99.90
2018-04-02T09:37:01.593Z,99.90
2018-04-02T09:39:30.614Z,99.90
2018-04-02T09:41:58.856Z,99.90
2018-04-02T09:44:27.874Z,99.90
2018-04-02T09:46:56.127Z,99.90
2018-04-02T09:49:24.362Z,99.90
2018-04-02T09:51:52.607Z,99.90
2018-04-02T09:54:20.862Z,99.90
2018-04-02T09:56:49.873Z,99.90
2018-04-02T09:59:18.157Z,99.90
2018-04-02T10:01:46.372Z,99.90
2018-04-02T10:04:14.612Z,99.90
2018-04-02T10:06:42.852Z,99.90
2018-04-02T10:09:11.865Z,99.90
2018-04-02T10:11:40.117Z,99.90
2018-04-02T10:14:09.124Z,99.00
2018-04-02T10:16:37.381Z,99.00
2018-04-02T10:19:05.620Z,99.90
2018-04-02T10:21:33.875Z,99.70
2018-04-02T10:24:02.164Z,99.60
2018-04-02T10:26:31.135Z,99.90
2018-04-02T10:28:59.380Z,99.90
2018-04-02T10:31:28.422Z,99.90
2018-04-02T10:33:56.663Z,99.90
2018-04-02T10:36:25.674Z,99.80
2018-04-02T10:38:53.930Z,99.70
2018-04-02T10:41:22.947Z,98.20
2018-04-02T10:43:51.204Z,98.20
2018-04-02T10:46:19.452Z,98.20
2018-04-02T10:48:47.699Z,97.20
2018-04-02T10:51:15.940Z,97.20
2018-04-02T10:53:44.212Z,94.70
2018-04-02T10:56:12.461Z,94.80
2018-04-02T10:58:41.483Z,95.70
2018-04-02T11:01:09.729Z,95.70
2018-04-02T11:03:38.762Z,96.20
2018-04-02T11:06:07.018Z,95.90
2018-04-02T11:08:36.029Z,91.30
2018-04-02T11:11:04.282Z,91.50
2018-04-02T11:13:33.293Z,90.90
2018-04-02T11:16:01.533Z,90.70
2018-04-02T11:18:29.793Z,90.90
2018-04-02T11:20:58.034Z,91.30
2018-04-02T11:23:26.293Z,85.70
2018-04-02T11:25:54.536Z,86.80
2018-04-02T11:28:22.782Z,87.00
2018-04-02T11:30:51.032Z,80.30
2018-04-02T11:33:19.271Z,74.20
2018-04-02T11:35:48.296Z,84.60
2018-04-02T11:38:16.538Z,83.50
2018-04-02T11:40:45.553Z,77.40
2018-04-02T11:43:13.798Z,77.80
2018-04-02T11:45:42.049Z,71.90
2018-04-02T11:48:10.352Z,70.30
2018-04-02T11:50:38.537Z,61.90
2018-04-02T11:53:07.555Z,59.40
2018-04-02T11:55:35.809Z,59.50
2018-04-02T11:58:04.817Z,62.60
2018-04-02T12:00:33.070Z,62.40
2018-04-02T12:03:02.087Z,58.70
2018-04-02T12:05:30.350Z,58.30
2018-04-02T12:07:59.362Z,56.90
2018-04-02T12:10:27.605Z,56.80
2018-04-02T12:12:56.613Z,58.70
2018-04-02T12:15:25.634Z,59.90
2018-04-02T12:17:53.878Z,59.80
2018-04-02T12:20:22.900Z,61.00
2018-04-02T12:22:51.158Z,60.70
2018-04-02T12:25:19.404Z,58.70
2018-04-02T12:27:47.644Z,58.90
2018-04-02T12:30:15.900Z,56.80
2018-04-02T12:32:44.149Z,57.60
2018-04-02T12:35:13.162Z,57.80
2018-04-02T12:37:41.417Z,57.90
2018-04-02T12:40:10.438Z,59.20
2018-04-02T12:42:38.689Z,59.30
2018-04-02T12:45:07.701Z,59.70
2018-04-02T12:47:35.954Z,59.80
2018-04-02T12:50:04.958Z,61.60
2018-04-02T12:52:33.213Z,61.50
2018-04-02T12:55:02.226Z,60.60
2018-04-02T12:57:30.477Z,60.80
2018-04-02T12:59:59.491Z,60.00
2018-04-02T13:02:28.502Z,59.30
2018-04-02T13:04:56.745Z,59.30
2018-04-02T13:07:25.758Z,59.00
2018-04-02T13:09:54.004Z,58.80
2018-04-02T13:12:22.257Z,59.30
2018-04-02T13:14:50.505Z,56.70
2018-04-02T13:17:18.750Z,56.30
2018-04-02T13:19:47.759Z,53.70
2018-04-02T13:22:16.006Z,53.80
2018-04-02T13:24:45.059Z,50.10
2018-04-02T13:27:13.266Z,50.00
2018-04-02T13:29:41.515Z,48.80
2018-04-02T13:32:09.761Z,49.10
2018-04-02T13:34:38.010Z,50.40
2018-04-02T13:37:07.014Z,51.90
2018-04-02T13:39:35.275Z,51.80
2018-04-02T13:42:04.289Z,50.60
2018-04-02T13:44:32.545Z,50.50
2018-04-02T13:47:01.558Z,49.30
2018-04-02T13:49:29.814Z,49.30
2018-04-02T13:51:58.826Z,49.40
2018-04-02T13:54:27.071Z,49.20
2018-04-02T13:56:56.080Z,51.10
2018-04-02T13:59:25.101Z,49.00
2018-04-02T14:01:53.373Z,48.90
2018-04-02T14:04:21.616Z,48.60
2018-04-02T14:06:50.627Z,49.30
2018-04-02T14:09:18.881Z,49.20
2018-04-02T14:11:47.889Z,49.20
2018-04-02T14:14:16.142Z,49.10
2018-04-02T14:16:44.382Z,49.20
2018-04-02T14:19:12.626Z,50.10
2018-04-02T14:21:40.864Z,50.00
2018-04-02T14:24:09.121Z,49.10
2018-04-02T14:26:37.365Z,49.00
2018-04-02T14:29:05.609Z,49.00
2018-04-02T14:31:34.659Z,47.10
2018-04-02T14:34:02.861Z,47.10
2018-04-02T14:36:31.120Z,46.30
2018-04-02T14:38:59.414Z,46.30
2018-04-02T14:41:27.610Z,44.70
2018-04-02T14:43:55.857Z,44.40
2018-04-02T14:46:24.111Z,44.30
2018-04-02T14:48:52.345Z,44.80
2018-04-02T14:51:20.603Z,43.10
2018-04-02T14:53:49.617Z,42.80
2018-04-02T14:56:17.923Z,42.80
2018-04-02T14:58:46.109Z,43.20
2018-04-02T15:01:14.358Z,43.60
2018-04-02T15:03:42.606Z,44.10
2018-04-02T15:06:11.573Z,44.40
2018-04-02T15:08:39.817Z,44.00
2018-04-02T15:11:08.072Z,43.70
2018-04-02T15:13:36.310Z,43.40
2018-04-02T15:16:05.330Z,42.50
2018-04-02T15:18:34.390Z,42.60
2018-04-02T15:21:03.408Z,41.40
2018-04-02T15:23:31.649Z,41.40
2018-04-02T15:25:59.881Z,39.60
2018-04-02T15:28:28.132Z,39.20
2018-04-02T15:30:56.373Z,40.30
2018-04-02T15:33:24.624Z,40.20
2018-04-02T15:35:52.866Z,41.10
2018-04-02T15:38:21.116Z,42.70
2018-04-02T15:40:50.142Z,42.20
2018-04-02T15:43:18.391Z,42.20
2018-04-02T15:45:47.445Z,43.00
2018-04-02T15:48:15.702Z,43.00
2018-04-02T15:50:43.941Z,42.70
2018-04-02T15:53:12.197Z,41.30
2018-04-02T15:55:41.204Z,39.70
2018-04-02T15:58:10.227Z,39.90
2018-04-02T16:00:38.476Z,39.80
2018-04-02T16:03:07.550Z,39.80
2018-04-02T16:05:35.726Z,39.80
2018-04-02T16:08:03.989Z,39.80
2018-04-02T16:10:32.224Z,40.30
2018-04-02T16:13:00.477Z,40.40
2018-04-02T16:15:28.729Z,40.00
2018-04-02T16:17:57.734Z,41.00
2018-04-02T16:20:26.746Z,40.90
2018-04-02T16:22:54.985Z,40.90
2018-04-02T16:25:23.233Z,39.90
2018-04-02T16:27:51.485Z,40.00
2018-04-02T16:30:19.730Z,39.70
2018-04-02T16:32:48.773Z,39.70
2018-04-02T16:35:17.030Z,39.70
2018-04-02T16:37:45.274Z,39.60
2018-04-02T16:40:14.288Z,38.50
2018-04-02T16:42:42.533Z,38.50
2018-04-02T16:45:11.545Z,38.40
2018-04-02T16:47:39.789Z,38.30
2018-04-02T16:50:08.041Z,39.20
2018-04-02T16:52:36.277Z,39.30
2018-04-02T16:55:04.539Z,39.60
2018-04-02T16:57:33.545Z,39.50
2018-04-02T17:00:01.794Z,39.50
2018-04-02T17:02:30.810Z,40.60
2018-04-02T17:04:59.059Z,40.60
2018-04-02T17:07:27.297Z,40.60
2018-04-02T17:09:55.554Z,40.30
2018-04-02T17:12:23.785Z,40.90
2018-04-02T17:14:52.805Z,41.80
2018-04-02T17:17:21.054Z,41.80
2018-04-02T17:19:50.067Z,43.50
2018-04-02T17:22:18.318Z,43.40
2018-04-02T17:24:47.333Z,44.70
2018-04-02T17:27:15.593Z,44.20
2018-04-02T17:29:44.601Z,44.80
2018-04-02T17:32:12.859Z,44.80
2018-04-02T17:34:41.866Z,45.60
2018-04-02T17:37:10.876Z,46.30
2018-04-02T17:39:39.129Z,46.30
2018-04-02T17:42:08.154Z,47.00
2018-04-02T17:47:11.028Z,47.40
2018-04-02T17:49:40.046Z,47.90
2018-04-02T17:52:08.297Z,47.80
2018-04-02T17:54:37.309Z,48.50
2018-04-02T17:57:05.560Z,48.50
2018-04-02T17:59:33.817Z,48.80
2018-04-02T18:02:02.079Z,49.30
2018-04-02T18:04:30.322Z,49.30
2018-04-02T18:06:58.577Z,49.40
2018-04-02T18:09:26.824Z,49.50
2018-04-02T18:11:55.089Z,49.80
2018-04-02T18:14:23.339Z,50.20
2018-04-02T18:16:51.598Z,50.70
2018-04-02T18:19:19.841Z,51.00
2018-04-02T18:21:48.861Z,51.20
2018-04-02T18:24:17.113Z,51.20
2018-04-02T18:26:45.395Z,51.30
2018-04-02T18:29:13.643Z,51.80
2018-04-02T18:31:41.894Z,52.20
2018-04-02T18:34:10.141Z,52.90
2018-04-02T18:36:38.390Z,53.40
2018-04-02T18:39:07.406Z,55.60
2018-04-02T18:41:35.650Z,55.50
2018-04-02T18:44:04.674Z,56.20
2018-04-02T18:46:32.927Z,56.20
2018-04-02T18:49:01.953Z,58.60
2018-04-02T18:51:30.198Z,58.60
2018-04-02T18:53:58.454Z,58.50
2018-04-02T18:56:27.465Z,59.30
2018-04-02T18:58:55.717Z,58.70
2018-04-02T19:01:24.736Z,61.70
2018-04-02T19:03:53.013Z,61.00
2018-04-02T19:06:21.266Z,61.70
2018-04-02T19:08:49.513Z,64.00
2018-04-02T19:11:17.773Z,63.50
2018-04-02T19:13:46.016Z,67.40
2018-04-02T19:16:14.274Z,67.40
2018-04-02T19:18:43.297Z,69.70
2018-04-02T19:21:11.560Z,69.30
2018-04-02T19:23:39.806Z,70.70
2018-04-02T19:26:08.060Z,70.90
2018-04-02T19:28:36.313Z,69.30
2018-04-02T19:31:04.574Z,70.20
2018-04-02T19:33:32.815Z,70.90
2018-04-02T19:36:01.843Z,71.50
2018-04-02T19:38:30.107Z,71.90
2018-04-02T19:40:58.378Z,72.00
2018-04-02T19:43:27.385Z,73.70
2018-04-02T19:45:55.650Z,73.60
2018-04-02T19:48:24.656Z,73.80
2018-04-02T19:50:52.918Z,73.80
2018-04-02T19:53:21.165Z,73.30
2018-04-02T19:55:49.422Z,76.20
2018-04-02T19:58:17.669Z,76.00
2018-04-02T20:00:45.934Z,76.80
2018-04-02T20:03:14.190Z,77.60
2018-04-02T20:05:43.217Z,77.80
2018-04-02T20:08:11.468Z,77.70
2018-04-02T20:10:39.715Z,80.00
2018-04-02T20:13:07.970Z,78.90
2018-04-02T20:15:36.227Z,79.60
2018-04-02T20:18:04.486Z,80.00
2018-04-02T20:20:33.612Z,78.60
2018-04-02T20:23:01.896Z,80.00
2018-04-02T20:25:30.851Z,80.10
2018-04-02T20:27:59.117Z,79.90
2018-04-02T20:30:27.376Z,79.90
2018-04-02T20:32:56.407Z,80.90
2018-04-02T20:35:24.666Z,80.80
2018-04-02T20:37:52.929Z,82.50
2018-04-02T20:40:21.182Z,83.10
2018-04-02T20:42:50.210Z,85.10
2018-04-02T20:45:18.456Z,84.80
2018-04-02T20:47:47.481Z,85.10
2018-04-02T20:50:15.733Z,85.10
2018-04-02T20:52:44.766Z,89.60
2018-04-02T20:55:13.021Z,89.60
2018-04-02T20:57:41.278Z,90.10
2018-04-02T21:00:10.339Z,91.50
2018-04-02T21:02:38.562Z,91.40
2018-04-02T21:05:06.815Z,92.00
2018-04-02T21:07:35.840Z,92.60
2018-04-02T21:10:04.097Z,92.60
2018-04-02T21:12:32.358Z,92.50
2018-04-02T21:15:01.379Z,91.50
2018-04-02T21:17:29.638Z,91.50
2018-04-02T21:19:58.661Z,91.50
2018-04-02T21:22:26.922Z,91.50
2018-04-02T21:24:55.177Z,91.80
2018-04-02T21:27:24.198Z,91.40
2018-04-02T21:29:52.501Z,91.40
2018-04-02T21:32:20.721Z,91.70
2018-04-02T21:34:49.745Z,92.00
2018-04-02T21:37:18.004Z,92.00
2018-04-02T21:39:46.284Z,92.40
2018-04-02T21:42:14.545Z,92.30
2018-04-02T21:44:43.566Z,92.70
2018-04-02T21:47:11.825Z,92.90
2018-04-02T21:49:40.097Z,91.80
2018-04-02T21:52:09.113Z,91.60
2018-04-02T21:54:37.382Z,91.50
2018-04-02T21:57:05.630Z,92.60
2018-04-02T21:59:34.670Z,92.50
2018-04-02T22:02:02.929Z,92.50
2018-04-02T22:04:31.194Z,92.60
2018-04-02T22:07:06.309Z,95.00
2018-04-02T22:09:34.572Z,95.10
2018-04-02T22:12:02.843Z,96.10
2018-04-02T22:14:31.101Z,97.00
2018-04-02T22:16:59.353Z,97.50
2018-04-02T22:19:27.611Z,95.80
2018-04-02T22:21:56.626Z,94.20
2018-04-02T22:24:24.909Z,94.10
2018-04-02T22:26:53.154Z,93.90
2018-04-02T22:29:22.177Z,95.80
2018-04-02T22:31:50.437Z,95.80
2018-04-02T22:34:19.516Z,98.10
2018-04-02T22:36:48.546Z,93.00
2018-04-02T22:39:16.788Z,93.00
2018-04-02T22:41:45.816Z,92.60
2018-04-02T22:44:14.069Z,92.60
2018-04-02T22:46:43.189Z,95.20
2018-04-02T22:49:11.438Z,95.10
2018-04-02T22:51:40.470Z,95.00
2018-04-02T22:54:08.769Z,95.00
2018-04-02T22:56:37.027Z,97.80
2018-04-02T22:59:05.282Z,97.50
2018-04-02T23:01:34.297Z,97.00
2018-04-02T23:04:02.545Z,96.90
2018-04-02T23:06:31.566Z,96.50
2018-04-02T23:08:59.814Z,96.40
2018-04-02T23:11:28.838Z,97.10
2018-04-02T23:13:57.085Z,97.40
2018-04-02T23:16:26.094Z,98.30
2018-04-02T23:18:54.342Z,98.10
2018-04-02T23:21:23.350Z,98.70
2018-04-02T23:23:51.599Z,98.80
2018-04-02T23:26:19.846Z,99.90
2018-04-02T23:28:48.102Z,99.00
2018-04-02T23:31:16.349Z,99.20
2018-04-02T23:33:45.374Z,97.70
2018-04-02T23:36:13.622Z,97.60
2018-04-02T23:38:41.874Z,97.70
2018-04-02T23:41:10.116Z,97.20
2018-04-02T23:43:38.380Z,97.10
2018-04-02T23:46:06.626Z,97.30
2018-04-02T23:48:34.877Z,97.60
2018-04-02T23:51:03.913Z,98.50
2018-04-02T23:53:32.264Z,98.50
2018-04-02T23:56:00.614Z,98.10
2018-04-02T23:58:29.730Z,99.10
